Time;durP1;ratioP1;P1;durP2;ratioP2;P2;SDS_P1;SDS_P2;PMS_P1;PMS_P2;Temp;Humidity;BMP_temperature;BMP_pressure;BME280_temperature;BME280_humidity;BME280_pressure;Samples;Min_cycle;Max_cycle;Signal;HPM_P1;HPM_P2
2022/03/19 00:02:02;;;;;;;81.20;29.72;;;;;;;;;;1778927;81;21080;-70
2022/03/19 00:04:29;;;;;;;68.78;25.23;;;;;;;;;;1778622;81;21107;-69
2022/03/19 00:06:56;;;;;;;58.00;23.30;;;;;;;;;;1778905;81;21592;-70
2022/03/19 00:09:23;;;;;;;61.08;23.62;;;;;;;;;;1778611;81;21064;-69
2022/03/19 00:11:52;;;;;;;57.03;22.90;;;;;;;;;;1778461;81;21017;-70
2022/03/19 00:14:20;;;;;;;82.70;28.75;;;;;;;;;;1778735;81;21073;-71
2022/03/19 00:16:48;;;;;;;62.88;25.15;;;;;;;;;;1778601;81;21116;-71
2022/03/19 00:19:15;;;;;;;85.57;30.10;;;;;;;;;;1778899;81;21037;-70
2022/03/19 00:21:43;;;;;;;83.15;31.70;;;;;;;;;;1778519;81;21731;-71
2022/03/19 00:24:09;;;;;;;78.75;27.65;;;;;;;;;;1778778;81;21073;-71
2022/03/19 00:26:36;;;;;;;98.65;35.10;;;;;;;;;;1778618;81;21045;-69
2022/03/19 00:29:04;;;;;;;90.15;30.15;;;;;;;;;;1778712;81;21077;-69
2022/03/19 00:31:31;;;;;;;53.68;22.73;;;;;;;;;;1778728;81;21037;-69
2022/03/19 00:33:57;;;;;;;83.78;29.50;;;;;;;;;;1778643;81;21013;-70
2022/03/19 00:36:24;;;;;;;68.25;28.45;;;;;;;;;;1778734;81;21041;-70
2022/03/19 00:38:51;;;;;;;74.05;26.57;;;;;;;;;;1781683;80;21009;-69
2022/03/19 00:41:17;;;;;;;87.40;31.77;;;;;;;;;;1784807;80;21064;-70
2022/03/19 00:43:45;;;;;;;90.53;30.95;;;;;;;;;;1784587;80;21112;-69
2022/03/19 00:46:13;;;;;;;71.17;26.30;;;;;;;;;;1784831;80;21044;-69
2022/03/19 00:48:40;;;;;;;85.95;30.92;;;;;;;;;;1784610;80;21018;-70
2022/03/19 00:51:07;;;;;;;90.50;29.67;;;;;;;;;;1784868;80;21051;-69
2022/03/19 00:53:34;;;;;;;89.77;31.75;;;;;;;;;;1784538;80;21095;-69
2022/03/19 00:56:01;;;;;;;79.45;29.85;;;;;;;;;;1784683;80;21514;-69
2022/03/19 00:58:27;;;;;;;101.27;37.42;;;;;;;;;;1784396;80;21091;-69
2022/03/19 01:03:43;;;;;;;89.47;31.15;;;;;;;;;;1747287;78;75664;-70
2022/03/19 01:06:10;;;;;;;108.17;35.20;;;;;;;;;;1788735;80;21523;-70
2022/03/19 01:08:39;;;;;;;91.65;30.15;;;;;;;;;;1789234;80;21017;-71
2022/03/19 01:11:07;;;;;;;105.27;38.13;;;;;;;;;;1789551;80;21538;-71
2022/03/19 01:13:35;;;;;;;101.50;37.03;;;;;;;;;;1789332;80;21060;-72
2022/03/19 01:16:04;;;;;;;91.40;33.48;;;;;;;;;;1789725;80;21028;-71
2022/03/19 01:18:32;;;;;;;113.45;38.92;;;;;;;;;;1789703;80;20993;-71
2022/03/19 01:20:59;;;;;;;132.18;42.15;;;;;;;;;;1789520;80;21048;-71
2022/03/19 01:23:26;;;;;;;151.15;52.10;;;;;;;;;;1789609;80;21051;-71
2022/03/19 01:25:53;;;;;;;116.90;39.20;;;;;;;;;;1789444;80;20989;-71
2022/03/19 01:28:20;;;;;;;139.05;46.60;;;;;;;;;;1789753;80;21068;-72
2022/03/19 01:30:47;;;;;;;131.72;44.50;;;;;;;;;;1789310;80;21550;-71
2022/03/19 01:33:14;;;;;;;126.20;45.83;;;;;;;;;;1789490;80;21024;-70
2022/03/19 01:35:41;;;;;;;128.97;41.42;;;;;;;;;;1789560;80;21037;-70
2022/03/19 01:38:08;;;;;;;117.85;38.25;;;;;;;;;;1790101;80;20997;-70
2022/03/19 01:40:35;;;;;;;145.97;50.85;;;;;;;;;;1789475;80;21020;-70
2022/03/19 01:43:02;;;;;;;113.85;41.15;;;;;;;;;;1789452;80;21044;-71
2022/03/19 01:45:29;;;;;;;153.87;52.75;;;;;;;;;;1789514;80;21068;-71
2022/03/19 01:47:56;;;;;;;129.07;42.35;;;;;;;;;;1789248;80;21040;-71
2022/03/19 01:50:23;;;;;;;134.60;43.55;;;;;;;;;;1789553;80;20985;-70
2022/03/19 01:53:55;;;;;;;141.65;44.85;;;;;;;;;;1819658;79;22700;-72
2022/03/19 01:56:22;;;;;;;104.83;37.28;;;;;;;;;;1793090;80;21595;-71
2022/03/19 01:58:50;;;;;;;110.00;39.05;;;;;;;;;;1792658;80;21433;-73
2022/03/19 02:01:18;;;;;;;154.82;46.40;;;;;;;;;;1792959;80;21044;-71
2022/03/19 02:03:45;;;;;;;152.97;46.53;;;;;;;;;;1779104;80;21091;-71
2022/03/19 02:06:12;;;;;;;144.22;46.42;;;;;;;;;;1758393;81;21103;-71
2022/03/19 02:08:42;;;;;;;166.43;54.13;;;;;;;;;;1757906;81;21403;-71
2022/03/19 02:11:10;;;;;;;147.62;49.30;;;;;;;;;;1758254;81;21431;-71
2022/03/19 02:13:37;;;;;;;158.47;50.55;;;;;;;;;;1758353;81;21051;-71
2022/03/19 02:16:05;;;;;;;181.55;55.90;;;;;;;;;;1758270;81;21072;-71
2022/03/19 02:18:33;;;;;;;172.55;53.92;;;;;;;;;;1758126;81;21040;-71
2022/03/19 02:21:00;;;;;;;135.10;43.25;;;;;;;;;;1724813;83;21052;-71
2022/03/19 02:26:13;;;;;;;149.82;47.73;;;;;;;;;;1725016;83;21106;-71
2022/03/19 02:28:41;;;;;;;152.00;48.83;;;;;;;;;;1724544;83;21032;-71
2022/03/19 02:31:08;;;;;;;117.85;40.12;;;;;;;;;;1724858;83;21147;-71
2022/03/19 02:33:35;;;;;;;158.30;49.98;;;;;;;;;;1724774;83;21632;-71
2022/03/19 02:36:01;;;;;;;164.05;54.03;;;;;;;;;;1725018;83;21032;-71
2022/03/19 02:38:28;;;;;;;127.02;42.60;;;;;;;;;;1724624;83;21383;-71
2022/03/19 02:40:54;;;;;;;134.35;46.68;;;;;;;;;;1724912;83;21072;-71
2022/03/19 02:43:21;;;;;;;129.38;42.23;;;;;;;;;;1725108;83;21085;-71
2022/03/19 02:45:49;;;;;;;122.98;42.35;;;;;;;;;;1724649;83;21045;-71
2022/03/19 02:48:15;;;;;;;112.50;34.75;;;;;;;;;;1725129;83;21065;-72
2022/03/19 02:50:42;;;;;;;93.70;29.98;;;;;;;;;;1724978;83;21088;-71
2022/03/19 02:53:10;;;;;;;114.88;43.65;;;;;;;;;;1708090;84;21085;-71
2022/03/19 02:55:38;;;;;;;68.75;27.07;;;;;;;;;;1714703;84;21017;-72
2022/03/19 02:58:05;;;;;;;104.97;37.80;;;;;;;;;;1684727;85;21033;-72
2022/03/19 03:00:33;;;;;;;91.97;31.12;;;;;;;;;;1750072;82;21037;-69
2022/03/19 03:02:59;;;;;;;107.80;36.85;;;;;;;;;;1749979;81;21536;-71
2022/03/19 03:05:26;;;;;;;80.07;30.35;;;;;;;;;;1749640;82;21068;-71
2022/03/19 03:07:53;;;;;;;80.35;31.25;;;;;;;;;;1749373;82;21033;-71
2022/03/19 03:10:20;;;;;;;87.97;32.28;;;;;;;;;;1749537;82;21087;-71
2022/03/19 03:12:48;;;;;;;95.32;33.35;;;;;;;;;;1749482;82;21591;-71
2022/03/19 03:15:15;;;;;;;111.57;36.17;;;;;;;;;;1749815;82;21044;-71
2022/03/19 03:17:42;;;;;;;104.12;35.68;;;;;;;;;;1749610;82;21080;-71
2022/03/19 03:20:10;;;;;;;95.83;35.90;;;;;;;;;;1749759;82;21025;-71
2022/03/19 03:22:42;;;;;;;101.70;36.20;;;;;;;;;;1749497;82;21125;-71
2022/03/19 03:25:07;;;;;;;84.90;33.42;;;;;;;;;;1749464;82;21075;-71
2022/03/19 03:27:34;;;;;;;132.95;46.95;;;;;;;;;;1749601;82;21081;-72
2022/03/19 03:30:00;;;;;;;122.55;46.70;;;;;;;;;;1750041;82;21516;-71
2022/03/19 03:32:27;;;;;;;118.20;42.03;;;;;;;;;;1749563;82;21049;-71
2022/03/19 03:34:55;;;;;;;143.25;50.12;;;;;;;;;;1749461;82;21115;-71
2022/03/19 03:37:24;;;;;;;118.02;42.88;;;;;;;;;;1749916;82;21065;-70
2022/03/19 03:39:51;;;;;;;115.00;39.70;;;;;;;;;;1749553;82;21083;-70
2022/03/19 03:42:18;;;;;;;109.15;39.38;;;;;;;;;;1749867;82;21076;-72
2022/03/19 03:44:46;;;;;;;115.85;38.35;;;;;;;;;;1749288;82;21583;-71
2022/03/19 03:47:13;;;;;;;96.12;35.23;;;;;;;;;;1749913;82;21040;-71
2022/03/19 03:49:41;;;;;;;108.75;40.08;;;;;;;;;;1749138;82;21005;-72
2022/03/19 03:52:09;;;;;;;97.33;35.17;;;;;;;;;;1749353;82;21111;-70
2022/03/19 03:54:36;;;;;;;85.42;33.00;;;;;;;;;;1720942;82;21117;-70
2022/03/19 03:57:03;;;;;;;88.10;35.05;;;;;;;;;;1741535;82;21537;-70
2022/03/19 03:59:31;;;;;;;95.95;33.55;;;;;;;;;;1741562;82;21106;-71
2022/03/19 04:01:58;;;;;;;79.50;31.93;;;;;;;;;;1741667;82;21085;-70
2022/03/19 04:04:26;;;;;;;103.47;39.78;;;;;;;;;;1741563;81;21358;-71
2022/03/19 04:06:54;;;;;;;109.67;37.33;;;;;;;;;;1741732;82;22188;-70
2022/03/19 04:09:22;;;;;;;79.42;29.55;;;;;;;;;;1742045;82;21077;-69
2022/03/19 04:11:49;;;;;;;72.15;28.70;;;;;;;;;;1741931;82;21046;-70
2022/03/19 04:14:16;;;;;;;80.12;31.93;;;;;;;;;;1742281;82;21053;-71
2022/03/19 04:16:42;;;;;;;63.08;25.90;;;;;;;;;;1742535;82;21033;-70
2022/03/19 04:19:09;;;;;;;70.52;27.15;;;;;;;;;;1743364;82;21025;-72
2022/03/19 04:21:37;;;;;;;83.45;30.05;;;;;;;;;;1741726;82;21076;-72
2022/03/19 04:24:04;;;;;;;73.83;28.98;;;;;;;;;;1741865;82;21033;-73
2022/03/19 04:26:32;;;;;;;88.97;33.98;;;;;;;;;;1741599;82;21033;-72
2022/03/19 04:28:59;;;;;;;60.05;23.77;;;;;;;;;;1741736;82;21096;-72
2022/03/19 04:31:26;;;;;;;82.90;32.63;;;;;;;;;;1741502;82;21512;-72
2022/03/19 04:33:52;;;;;;;70.75;28.70;;;;;;;;;;1741872;82;21009;-72
2022/03/19 04:36:32;;;;;;;84.83;32.40;;;;;;;;;;1741541;82;21100;-71
2022/03/19 04:38:59;;;;;;;69.67;29.50;;;;;;;;;;1741624;82;21061;-71
2022/03/19 04:41:26;;;;;;;63.55;24.55;;;;;;;;;;1741673;82;21036;-71
2022/03/19 04:43:56;;;;;;;79.92;31.73;;;;;;;;;;1740153;82;21057;-71
2022/03/19 04:46:23;;;;;;;82.78;32.13;;;;;;;;;;1741732;82;21057;-71
2022/03/19 04:48:50;;;;;;;89.95;35.73;;;;;;;;;;1741438;82;21533;-71
2022/03/19 04:51:18;;;;;;;67.10;29.18;;;;;;;;;;1741729;82;21228;-71
2022/03/19 04:53:50;;;;;;;70.65;26.70;;;;;;;;;;1746700;82;21520;-71
2022/03/19 04:56:17;;;;;;;60.10;25.62;;;;;;;;;;1750086;82;21056;-71
2022/03/19 04:58:46;;;;;;;76.97;35.08;;;;;;;;;;1750019;82;21136;-71
2022/03/19 05:01:13;;;;;;;64.58;28.15;;;;;;;;;;1750182;82;20986;-72
2022/03/19 05:03:41;;;;;;;87.33;35.28;;;;;;;;;;1749808;82;21093;-72
2022/03/19 05:06:08;;;;;;;65.35;29.87;;;;;;;;;;1750120;82;21599;-71
2022/03/19 05:08:36;;;;;;;60.73;26.20;;;;;;;;;;1750073;82;21044;-72
2022/03/19 05:11:17;;;;;;;64.82;28.67;;;;;;;;;;1750304;82;21020;-72
2022/03/19 05:13:45;;;;;;;75.72;30.23;;;;;;;;;;1750034;82;21068;-72
2022/03/19 05:16:13;;;;;;;61.18;24.87;;;;;;;;;;1749881;82;21013;-71
2022/03/19 05:18:40;;;;;;;72.97;31.82;;;;;;;;;;1750411;82;21076;-71
2022/03/19 05:21:08;;;;;;;66.60;29.77;;;;;;;;;;1749940;82;21056;-70
2022/03/19 05:23:36;;;;;;;72.15;29.60;;;;;;;;;;1723388;82;21057;-71
2022/03/19 05:26:04;;;;;;;83.50;33.83;;;;;;;;;;1749781;82;21053;-71
2022/03/19 05:28:32;;;;;;;77.27;36.28;;;;;;;;;;1750207;82;21124;-70
2022/03/19 05:31:01;;;;;;;77.15;36.00;;;;;;;;;;1749891;82;21564;-71
2022/03/19 05:36:15;;;;;;;75.30;34.63;;;;;;;;;;1749873;82;21089;-70
2022/03/19 05:38:43;;;;;;;77.72;34.03;;;;;;;;;;1750230;82;21037;-71
2022/03/19 05:41:10;;;;;;;69.60;32.20;;;;;;;;;;1750019;82;21065;-71
2022/03/19 05:43:37;;;;;;;76.75;33.45;;;;;;;;;;1750430;82;21119;-70
2022/03/19 05:46:04;;;;;;;76.37;37.93;;;;;;;;;;1750086;82;21540;-70
2022/03/19 05:48:31;;;;;;;97.05;42.40;;;;;;;;;;1750349;82;21324;-71
2022/03/19 05:50:59;;;;;;;115.40;46.20;;;;;;;;;;1722608;82;21556;-71
2022/03/19 05:53:28;;;;;;;161.43;68.30;;;;;;;;;;1747122;82;21012;-70
2022/03/19 05:55:54;;;;;;;201.65;78.95;;;;;;;;;;1741483;82;21073;-71
2022/03/19 05:58:20;;;;;;;196.95;80.50;;;;;;;;;;1741878;82;21104;-71
2022/03/19 06:00:47;;;;;;;118.42;47.10;;;;;;;;;;1741615;82;21112;-71
2022/03/19 06:03:16;;;;;;;171.22;71.47;;;;;;;;;;1741538;81;21038;-71
2022/03/19 06:05:43;;;;;;;168.37;61.05;;;;;;;;;;1741618;82;21081;-71
2022/03/19 06:08:10;;;;;;;172.62;71.53;;;;;;;;;;1741662;82;21010;-71
2022/03/19 06:10:38;;;;;;;197.37;66.82;;;;;;;;;;1741529;82;21652;-71
2022/03/19 06:13:06;;;;;;;248.15;94.37;;;;;;;;;;1741324;82;21108;-71
2022/03/19 06:15:35;;;;;;;215.85;81.08;;;;;;;;;;1741590;82;21042;-71
2022/03/19 06:18:03;;;;;;;206.00;76.37;;;;;;;;;;1741473;82;21064;-71
2022/03/19 06:20:31;;;;;;;141.57;52.93;;;;;;;;;;1741492;82;21068;-71
2022/03/19 06:23:00;;;;;;;138.60;48.95;;;;;;;;;;1741753;82;21046;-71
2022/03/19 06:25:27;;;;;;;114.97;48.70;;;;;;;;;;1741667;82;21057;-71
2022/03/19 06:27:53;;;;;;;74.70;30.85;;;;;;;;;;1741547;82;21387;-70
2022/03/19 06:30:20;;;;;;;70.50;33.10;;;;;;;;;;1741820;82;21009;-71
2022/03/19 06:32:48;;;;;;;54.42;24.23;;;;;;;;;;1741691;82;21049;-71
2022/03/19 06:37:19;;;;;;;78.65;35.03;;;;;;;;;;1741377;82;21181;-70
2022/03/19 06:37:46;;;;;;;64.07;26.65;;;;;;;;;;1738493;82;21495;-71
2022/03/19 06:40:14;;;;;;;62.43;27.85;;;;;;;;;;1741621;82;21096;-70
2022/03/19 06:42:41;;;;;;;56.90;28.30;;;;;;;;;;1742107;82;21112;-70
2022/03/19 06:45:08;;;;;;;73.95;29.27;;;;;;;;;;1743311;82;21057;-71
2022/03/19 06:47:34;;;;;;;52.88;25.02;;;;;;;;;;1742987;82;21013;-71
2022/03/19 06:50:03;;;;;;;88.95;36.00;;;;;;;;;;1741043;82;21097;-71
2022/03/19 06:52:32;;;;;;;87.88;36.13;;;;;;;;;;1741691;82;21101;-70
2022/03/19 06:54:59;;;;;;;95.53;35.52;;;;;;;;;;1748481;82;21123;-71
2022/03/19 06:57:25;;;;;;;130.55;49.35;;;;;;;;;;1749630;82;21032;-70
2022/03/19 06:59:55;;;;;;;95.28;33.15;;;;;;;;;;1749622;82;21036;-70
2022/03/19 07:02:22;;;;;;;148.55;51.90;;;;;;;;;;1749630;82;21073;-70
2022/03/19 07:04:49;;;;;;;137.15;47.35;;;;;;;;;;1749512;81;21075;-71
2022/03/19 07:07:18;;;;;;;148.53;51.25;;;;;;;;;;1749611;82;21006;-70
2022/03/19 07:09:45;;;;;;;139.68;50.23;;;;;;;;;;1749815;82;21052;-70
2022/03/19 07:12:13;;;;;;;127.38;44.35;;;;;;;;;;1749625;82;21100;-70
2022/03/19 07:14:40;;;;;;;137.65;50.20;;;;;;;;;;1749749;82;21544;-71
2022/03/19 07:17:07;;;;;;;113.83;44.38;;;;;;;;;;1749600;82;21568;-70
2022/03/19 07:19:34;;;;;;;88.52;30.68;;;;;;;;;;1749985;82;21021;-71
2022/03/19 07:22:00;;;;;;;121.60;46.65;;;;;;;;;;1749657;82;21052;-71
2022/03/19 07:24:28;;;;;;;107.65;37.25;;;;;;;;;;1749657;82;21587;-71
2022/03/19 07:26:54;;;;;;;93.58;35.73;;;;;;;;;;1749741;82;21024;-71
2022/03/19 07:29:21;;;;;;;92.12;34.45;;;;;;;;;;1750022;82;21043;-71
2022/03/19 07:31:48;;;;;;;94.35;36.63;;;;;;;;;;1749844;82;21079;-71
2022/03/19 07:34:14;;;;;;;88.65;32.60;;;;;;;;;;1750049;82;22061;-72
2022/03/19 07:36:43;;;;;;;81.65;28.25;;;;;;;;;;1749738;82;21024;-71
2022/03/19 07:39:09;;;;;;;78.85;27.75;;;;;;;;;;1749795;82;21025;-72
2022/03/19 07:41:45;;;;;;;38.17;16.70;;;;;;;;;;1749737;82;21096;-72
2022/03/19 07:44:12;;;;;;;41.18;19.17;;;;;;;;;;1749678;82;21079;-71
2022/03/19 07:46:42;;;;;;;39.50;14.25;;;;;;;;;;1749642;82;21025;-71
2022/03/19 07:49:08;;;;;;;25.95;11.83;;;;;;;;;;1749529;82;21080;-71
2022/03/19 07:51:35;;;;;;;30.40;13.45;;;;;;;;;;1749643;82;20993;-71
2022/03/19 07:54:04;;;;;;;21.75;10.80;;;;;;;;;;1749533;82;21093;-71
2022/03/19 07:56:31;;;;;;;21.55;11.05;;;;;;;;;;1749477;82;21588;-72
2022/03/19 07:58:57;;;;;;;22.02;10.00;;;;;;;;;;1749679;82;21001;-72
2022/03/19 08:01:24;;;;;;;21.93;10.68;;;;;;;;;;1749401;82;21068;-71
2022/03/19 08:03:51;;;;;;;13.68;6.65;;;;;;;;;;1749719;80;21084;-71
2022/03/19 08:06:19;;;;;;;16.30;7.75;;;;;;;;;;1749500;82;21107;-71
2022/03/19 08:08:45;;;;;;;20.50;10.65;;;;;;;;;;1749858;82;21036;-71
2022/03/19 08:11:13;;;;;;;15.83;9.20;;;;;;;;;;1749784;82;21021;-70
2022/03/19 08:13:41;;;;;;;15.75;7.87;;;;;;;;;;1749762;82;21545;-71
2022/03/19 08:16:09;;;;;;;13.32;7.92;;;;;;;;;;1749558;82;21037;-71
2022/03/19 08:18:36;;;;;;;11.25;5.72;;;;;;;;;;1749856;82;21063;-70
2022/03/19 08:21:05;;;;;;;10.48;4.83;;;;;;;;;;1749529;82;21040;-71
2022/03/19 08:23:34;;;;;;;9.90;6.58;;;;;;;;;;1749833;82;21033;-70
2022/03/19 08:26:01;;;;;;;10.95;5.87;;;;;;;;;;1749489;82;21032;-71
2022/03/19 08:28:29;;;;;;;7.75;4.40;;;;;;;;;;1749830;82;21100;-72
2022/03/19 08:30:55;;;;;;;8.78;4.83;;;;;;;;;;1749288;82;21574;-71
2022/03/19 08:33:22;;;;;;;10.32;5.15;;;;;;;;;;1749733;82;21078;-72
2022/03/19 08:35:50;;;;;;;9.78;5.65;;;;;;;;;;1749478;82;21072;-72
2022/03/19 08:41:02;;;;;;;8.53;5.53;;;;;;;;;;1749539;82;21052;-72
2022/03/19 08:43:29;;;;;;;9.05;5.40;;;;;;;;;;1749778;82;21076;-71
2022/03/19 08:45:55;;;;;;;8.48;4.35;;;;;;;;;;1749593;82;21061;-72
2022/03/19 08:48:22;;;;;;;7.70;4.03;;;;;;;;;;1749946;82;21052;-72
2022/03/19 08:50:49;;;;;;;11.12;6.60;;;;;;;;;;1749433;82;21033;-71
2022/03/19 08:53:15;;;;;;;10.70;5.87;;;;;;;;;;1749895;82;21106;-71
2022/03/19 08:55:42;;;;;;;7.08;4.60;;;;;;;;;;1749571;82;21107;-71
2022/03/19 08:58:09;;;;;;;10.78;6.20;;;;;;;;;;1749790;82;21137;-72
2022/03/19 09:00:38;;;;;;;9.38;5.45;;;;;;;;;;1749639;82;21526;-71
2022/03/19 09:03:04;;;;;;;12.45;6.30;;;;;;;;;;1749722;81;21071;-72
2022/03/19 09:05:32;;;;;;;8.75;5.40;;;;;;;;;;1749550;82;21563;-71
2022/03/19 09:07:58;;;;;;;12.78;6.60;;;;;;;;;;1751690;82;21024;-72
2022/03/19 09:10:24;;;;;;;9.80;5.90;;;;;;;;;;1752679;82;21001;-72
2022/03/19 09:12:52;;;;;;;10.18;5.60;;;;;;;;;;1749522;82;21006;-72
2022/03/19 09:15:19;;;;;;;7.83;4.70;;;;;;;;;;1749787;82;21131;-71
2022/03/19 09:17:45;;;;;;;8.60;5.28;;;;;;;;;;1749661;82;21508;-71
2022/03/19 09:20:13;;;;;;;13.00;6.70;;;;;;;;;;1749597;82;21548;-71
2022/03/19 09:22:40;;;;;;;8.50;6.12;;;;;;;;;;1749513;82;20989;-71
2022/03/19 09:25:07;;;;;;;6.83;4.40;;;;;;;;;;1749697;82;21104;-71
2022/03/19 09:27:34;;;;;;;8.73;5.45;;;;;;;;;;1749378;82;21009;-71
2022/03/19 09:30:02;;;;;;;8.25;5.33;;;;;;;;;;1749629;82;21076;-71
2022/03/19 09:32:28;;;;;;;9.10;5.85;;;;;;;;;;1749367;82;21140;-72
2022/03/19 09:34:55;;;;;;;10.68;4.85;;;;;;;;;;1749536;82;21057;-71
2022/03/19 09:37:22;;;;;;;8.98;5.40;;;;;;;;;;1749668;82;21033;-73
2022/03/19 09:39:49;;;;;;;9.40;5.25;;;;;;;;;;1749531;82;21060;-72
2022/03/19 09:42:16;;;;;;;10.40;5.83;;;;;;;;;;1749554;82;20999;-71
2022/03/19 09:44:43;;;;;;;9.63;6.17;;;;;;;;;;1749800;82;21044;-72
2022/03/19 09:47:10;;;;;;;9.58;5.78;;;;;;;;;;1749603;82;20997;-73
2022/03/19 09:49:36;;;;;;;8.48;5.33;;;;;;;;;;1749541;82;21091;-71
2022/03/19 09:52:04;;;;;;;9.33;5.17;;;;;;;;;;1749638;82;21037;-71
2022/03/19 09:54:30;;;;;;;7.58;5.17;;;;;;;;;;1749484;82;21029;-71
2022/03/19 09:56:57;;;;;;;9.10;5.80;;;;;;;;;;1749742;82;21489;-71
2022/03/19 09:59:26;;;;;;;7.22;5.10;;;;;;;;;;1749534;82;21123;-72
2022/03/19 10:01:53;;;;;;;8.43;5.40;;;;;;;;;;1749622;82;21120;-71
2022/03/19 10:04:20;;;;;;;11.97;5.30;;;;;;;;;;1749567;81;21524;-71
2022/03/19 10:09:45;;;;;;;8.40;5.53;;;;;;;;;;1749624;82;21040;-72
2022/03/19 10:12:13;;;;;;;9.10;6.05;;;;;;;;;;1749585;82;21048;-71
2022/03/19 10:14:39;;;;;;;8.65;5.08;;;;;;;;;;1749920;82;21021;-70
2022/03/19 10:17:06;;;;;;;7.22;5.03;;;;;;;;;;1749745;82;21002;-71
2022/03/19 10:19:33;;;;;;;8.58;5.45;;;;;;;;;;1749814;82;21060;-71
2022/03/19 10:22:08;;;;;;;8.85;5.40;;;;;;;;;;1720501;82;21497;-71
2022/03/19 10:24:36;;;;;;;10.43;5.62;;;;;;;;;;1749902;82;21497;-71
2022/03/19 10:27:03;;;;;;;9.75;6.10;;;;;;;;;;1749673;82;21060;-71
2022/03/19 10:29:33;;;;;;;8.90;4.37;;;;;;;;;;1749637;82;21056;-71
2022/03/19 10:32:01;;;;;;;8.95;5.83;;;;;;;;;;1749551;82;21063;-69
2022/03/19 10:34:29;;;;;;;8.53;4.55;;;;;;;;;;1720917;82;22103;-70
2022/03/19 10:36:56;;;;;;;9.93;4.33;;;;;;;;;;1749736;82;21033;-70
2022/03/19 10:39:25;;;;;;;9.35;4.58;;;;;;;;;;1750014;82;21080;-70
2022/03/19 10:41:52;;;;;;;10.08;5.00;;;;;;;;;;1749626;82;21089;-71
2022/03/19 10:44:20;;;;;;;9.33;5.33;;;;;;;;;;1749652;82;21536;-71
2022/03/19 10:46:53;;;;;;;8.35;4.20;;;;;;;;;;1749897;82;21536;-71
2022/03/19 10:49:21;;;;;;;8.23;4.97;;;;;;;;;;1749996;82;21107;-71
2022/03/19 10:51:49;;;;;;;7.60;4.90;;;;;;;;;;1749235;82;21045;-71
2022/03/19 10:54:15;;;;;;;9.38;4.75;;;;;;;;;;1749115;82;21096;-71
2022/03/19 10:56:43;;;;;;;6.83;3.95;;;;;;;;;;1741777;82;21068;-71
2022/03/19 10:59:09;;;;;;;10.35;5.33;;;;;;;;;;1741875;82;21088;-71
2022/03/19 11:01:36;;;;;;;6.55;4.10;;;;;;;;;;1741562;82;21541;-71
2022/03/19 11:04:03;;;;;;;7.90;4.67;;;;;;;;;;1741754;81;21065;-71
2022/03/19 11:06:32;;;;;;;7.47;5.20;;;;;;;;;;1741728;82;21049;-71
2022/03/19 11:09:01;;;;;;;8.93;5.45;;;;;;;;;;1741386;82;20998;-71
2022/03/19 11:11:42;;;;;;;8.98;5.28;;;;;;;;;;1741742;82;21080;-71
2022/03/19 11:14:08;;;;;;;8.03;5.05;;;;;;;;;;1741783;82;21073;-71
2022/03/19 11:16:36;;;;;;;7.50;4.20;;;;;;;;;;1741973;82;21533;-71
2022/03/19 11:19:03;;;;;;;6.78;4.95;;;;;;;;;;1741817;82;21005;-70
2022/03/19 11:21:31;;;;;;;10.65;4.87;;;;;;;;;;1741879;82;21045;-70
2022/03/19 11:24:03;;;;;;;8.65;5.08;;;;;;;;;;1741316;82;21082;-70
2022/03/19 11:26:30;;;;;;;7.65;4.30;;;;;;;;;;1741862;82;21557;-70
2022/03/19 11:28:57;;;;;;;11.12;5.50;;;;;;;;;;1741689;82;21025;-70
2022/03/19 11:31:29;;;;;;;7.40;4.45;;;;;;;;;;1741930;82;21049;-70
2022/03/19 11:34:15;;;;;;;6.80;4.58;;;;;;;;;;1741608;82;21085;-71
2022/03/19 11:36:57;;;;;;;8.55;3.90;;;;;;;;;;1741983;82;21045;-71
2022/03/19 11:39:24;;;;;;;9.10;4.35;;;;;;;;;;1741815;82;21030;-70
2022/03/19 11:41:51;;;;;;;9.88;5.08;;;;;;;;;;1741883;82;21576;-71
2022/03/19 11:44:18;;;;;;;7.67;4.37;;;;;;;;;;1741673;82;21080;-71
2022/03/19 11:46:54;;;;;;;8.08;4.90;;;;;;;;;;1741834;82;21100;-71
2022/03/19 11:49:40;;;;;;;7.72;4.17;;;;;;;;;;1741957;82;21537;-70
2022/03/19 11:52:06;;;;;;;5.30;3.67;;;;;;;;;;1741973;82;21513;-70
2022/03/19 11:54:54;;;;;;;6.55;4.25;;;;;;;;;;1741743;82;21104;-70
2022/03/19 11:57:20;;;;;;;6.28;4.67;;;;;;;;;;1741695;82;21092;-71
2022/03/19 11:59:48;;;;;;;7.05;4.22;;;;;;;;;;1741869;82;21116;-71
2022/03/19 12:02:14;;;;;;;5.70;3.87;;;;;;;;;;1741912;82;21065;-71
2022/03/19 12:04:51;;;;;;;8.68;4.12;;;;;;;;;;1741619;81;21604;-71
2022/03/19 12:07:43;;;;;;;7.37;3.77;;;;;;;;;;1741668;82;21053;-71
2022/03/19 12:10:09;;;;;;;6.72;4.17;;;;;;;;;;1741604;82;21057;-70
2022/03/19 12:12:36;;;;;;;9.13;5.20;;;;;;;;;;1741818;82;21013;-70
2022/03/19 12:15:22;;;;;;;5.50;3.40;;;;;;;;;;1741715;82;21097;-71
2022/03/19 12:17:49;;;;;;;7.30;4.12;;;;;;;;;;1741635;82;21041;-70
2022/03/19 12:20:17;;;;;;;6.25;3.72;;;;;;;;;;1741899;82;21045;-72
2022/03/19 12:22:44;;;;;;;6.87;4.20;;;;;;;;;;1741485;82;21493;-71
2022/03/19 12:25:14;;;;;;;9.08;3.65;;;;;;;;;;1741737;82;21603;-72
2022/03/19 12:27:46;;;;;;;;;;;;;;;;;;1682464;79;21213;-71
2022/03/19 12:30:13;;;;;;;7.75;4.65;;;;;;;;;;1679130;85;20139;-71
2022/03/19 12:32:54;;;;;;;4.22;3.17;;;;;;;;;;1679109;85;21430;-71
2022/03/19 12:35:18;;;;;;;6.92;4.35;;;;;;;;;;1678929;85;21060;-71
2022/03/19 12:37:47;;;;;;;8.30;5.00;;;;;;;;;;1679299;85;21025;-71
2022/03/19 12:40:15;;;;;;;7.60;4.67;;;;;;;;;;1679622;85;21057;-72
2022/03/19 12:42:42;;;;;;;7.80;4.40;;;;;;;;;;1679020;85;21057;-72
2022/03/19 12:45:09;;;;;;;8.33;4.40;;;;;;;;;;1679456;85;21619;-73
2022/03/19 12:47:36;;;;;;;8.43;4.35;;;;;;;;;;1679188;85;21077;-70
2022/03/19 12:50:02;;;;;;;5.58;3.80;;;;;;;;;;1679476;85;21049;-71
2022/03/19 12:52:33;;;;;;;8.68;4.45;;;;;;;;;;1679156;85;21096;-71
2022/03/19 12:54:58;;;;;;;7.90;4.70;;;;;;;;;;1679525;85;21009;-71
2022/03/19 12:57:25;;;;;;;7.78;4.35;;;;;;;;;;1679315;85;21121;-71
2022/03/19 12:59:52;;;;;;;5.67;3.92;;;;;;;;;;1679515;85;21588;-71
2022/03/19 13:02:19;;;;;;;7.40;4.45;;;;;;;;;;1679323;85;21595;-72
2022/03/19 13:04:46;;;;;;;7.42;3.98;;;;;;;;;;1704659;84;21034;-71
2022/03/19 13:07:15;;;;;;;9.43;5.08;;;;;;;;;;1707931;84;21085;-72
2022/03/19 13:09:42;;;;;;;10.70;6.20;;;;;;;;;;1707891;84;20975;-75
2022/03/19 13:12:13;;;;;;;10.85;5.92;;;;;;;;;;1681546;84;21021;-72
2022/03/19 13:14:42;;;;;;;10.03;5.92;;;;;;;;;;1707803;84;21050;-71
2022/03/19 13:17:09;;;;;;;12.53;6.75;;;;;;;;;;1707145;84;21620;-70
2022/03/19 13:19:37;;;;;;;16.37;9.40;;;;;;;;;;1707694;84;21065;-73
2022/03/19 13:22:08;;;;;;;13.65;7.40;;;;;;;;;;1707320;84;21088;-73
2022/03/19 13:24:34;;;;;;;12.15;7.78;;;;;;;;;;1707693;84;21128;-70
2022/03/19 13:27:00;;;;;;;13.15;6.28;;;;;;;;;;1713905;83;21048;-74
2022/03/19 13:29:35;;;;;;;12.88;6.35;;;;;;;;;;1719183;83;21060;-72
2022/03/19 13:32:00;;;;;;;11.48;5.25;;;;;;;;;;1718833;83;21088;-73
2022/03/19 13:34:30;;;;;;;9.70;4.70;;;;;;;;;;1719160;83;21044;-72
2022/03/19 13:36:57;;;;;;;9.30;5.08;;;;;;;;;;1719460;83;21037;-72
2022/03/19 13:39:27;;;;;;;8.78;5.50;;;;;;;;;;1698297;83;21076;-72
2022/03/19 13:41:55;;;;;;;9.65;5.80;;;;;;;;;;1718940;83;21096;-71
2022/03/19 13:44:28;;;;;;;9.18;5.25;;;;;;;;;;1718814;83;21076;-72
2022/03/19 13:47:08;;;;;;;7.10;3.98;;;;;;;;;;1719474;83;21044;-71
2022/03/19 13:49:35;;;;;;;6.37;4.37;;;;;;;;;;1719666;83;21057;-71
2022/03/19 13:52:02;;;;;;;6.83;4.20;;;;;;;;;;1719449;83;20977;-73
2022/03/19 13:54:47;;;;;;;7.85;3.95;;;;;;;;;;1719271;83;21540;-72
2022/03/19 13:57:14;;;;;;;7.05;4.72;;;;;;;;;;1719340;83;21067;-71
2022/03/19 13:59:43;;;;;;;6.20;3.87;;;;;;;;;;1719202;83;21056;-71
2022/03/19 14:02:10;;;;;;;6.10;4.12;;;;;;;;;;1719494;83;21006;-70
2022/03/19 14:04:37;;;;;;;6.92;4.53;;;;;;;;;;1719194;82;21634;-72
2022/03/19 14:07:05;;;;;;;5.72;3.90;;;;;;;;;;1719416;83;21532;-72
2022/03/19 14:10:54;;;;;;;6.87;3.65;;;;;;;;;;1819734;79;22889;-71
2022/03/19 14:13:25;;;;;;;6.47;4.50;;;;;;;;;;1792943;80;21004;-72
2022/03/19 14:15:52;;;;;;;7.17;4.72;;;;;;;;;;1788889;80;21464;-71
2022/03/19 14:18:29;;;;;;;6.55;4.42;;;;;;;;;;1793000;80;21031;-72
2022/03/19 14:20:59;;;;;;;7.25;4.17;;;;;;;;;;1793225;80;21080;-71
2022/03/19 14:23:25;;;;;;;5.25;3.60;;;;;;;;;;1793165;80;21111;-71
2022/03/19 14:25:52;;;;;;;6.95;3.90;;;;;;;;;;1793133;80;20989;-71
2022/03/19 14:28:19;;;;;;;5.42;3.92;;;;;;;;;;1793114;80;21060;-72
2022/03/19 14:30:47;;;;;;;6.70;4.33;;;;;;;;;;1793118;80;21020;-71
2022/03/19 14:33:13;;;;;;;7.03;3.65;;;;;;;;;;1792935;80;21471;-72
2022/03/19 14:35:42;;;;;;;8.03;3.80;;;;;;;;;;1793053;80;21036;-71
2022/03/19 14:38:11;;;;;;;6.78;3.92;;;;;;;;;;1792988;80;21044;-71
2022/03/19 14:40:39;;;;;;;6.62;4.00;;;;;;;;;;1792745;80;21484;-72
2022/03/19 14:43:06;;;;;;;6.80;3.70;;;;;;;;;;1793046;80;21571;-72
2022/03/19 14:45:33;;;;;;;6.67;3.60;;;;;;;;;;1792978;80;21059;-72